Time;durP1;ratioP1;P1;durP2;ratioP2;P2;SDS_P1;SDS_P2;PMS_P1;PMS_P2;Temp;Humidity;BMP_temperature;BMP_pressure;BME280_temperature;BME280_humidity;BME280_pressure;Samples;Min_cycle;Max_cycle;Signal;HPM_P1;HPM_P2
2022/04/26 03:38:10;;;;;;;4.93;4.50;;;9.60;99.90;9.90;96476.00;;;;4976910;28;20219;-72
2022/04/26 03:40:38;;;;;;;5.10;4.23;;;9.60;99.90;9.80;96491.00;;;;4976709;28;20302;-71
2022/04/26 03:43:07;;;;;;;6.63;5.57;;;9.60;99.90;9.90;96484.00;;;;4976953;28;20199;-72
2022/04/26 03:45:36;;;;;;;6.00;5.40;;;9.60;99.90;9.90;96495.00;;;;4975797;28;20235;-71
2022/04/26 03:48:05;;;;;;;5.83;5.23;;;9.60;99.90;9.90;96494.00;;;;4976448;28;20226;-71
2022/04/26 03:50:35;;;;;;;5.70;4.77;;;9.50;99.90;9.70;96499.00;;;;4960021;28;20208;-71
2022/04/26 03:53:04;;;;;;;6.47;5.50;;;9.50;99.90;9.80;96515.00;;;;4957583;28;20235;-72
2022/04/26 03:55:33;;;;;;;5.23;4.40;;;9.50;99.90;9.80;96505.00;;;;4953476;28;20207;-71
2022/04/26 03:58:01;;;;;;;6.03;5.23;;;9.50;99.90;9.90;96511.00;;;;4953928;28;20230;-72
2022/04/26 04:00:30;;;;;;;6.30;5.40;;;9.50;99.90;9.90;96519.00;;;;4954444;28;20199;-72
2022/04/26 04:02:59;;;;;;;6.33;5.37;;;9.50;99.90;9.90;96517.00;;;;4954356;28;20267;-72
2022/04/26 04:05:27;;;;;;;4.97;4.57;;;9.50;99.90;9.90;96518.00;;;;4952833;28;20196;-71
2022/04/26 04:07:57;;;;;;;6.03;4.87;;;9.50;99.90;9.70;96516.00;;;;4953683;28;20251;-72
2022/04/26 04:10:26;;;;;;;4.63;4.23;;;9.50;99.90;9.70;96518.00;;;;4954630;28;20198;-71
2022/04/26 04:12:54;;;;;;;5.20;4.67;;;9.50;99.90;9.80;96533.00;;;;4958754;28;20195;-72
2022/04/26 04:15:23;;;;;;;6.70;4.95;;;9.40;99.90;9.80;96531.00;;;;4965888;28;20413;-72
2022/04/26 04:17:52;;;;;;;6.68;6.07;;;9.50;99.90;9.80;96529.00;;;;4971762;28;20404;-71
2022/04/26 04:20:21;;;;;;;7.90;5.07;;;9.50;99.90;9.90;96532.00;;;;4972950;28;20195;-72
2022/04/26 04:22:49;;;;;;;5.63;4.47;;;9.50;99.90;9.90;96534.00;;;;4973144;28;20200;-72
2022/04/26 04:25:19;;;;;;;5.60;5.03;;;9.50;99.90;10.00;96532.00;;;;4971603;28;20601;-72
2022/04/26 04:27:51;;;;;;;4.90;4.43;;;9.50;99.90;10.00;96541.00;;;;4970074;28;20274;-72
2022/04/26 04:30:20;;;;;;;7.07;6.33;;;9.50;99.90;9.70;96532.00;;;;4970427;28;20196;-72
2022/04/26 04:32:48;;;;;;;5.83;5.23;;;9.50;99.90;9.80;96538.00;;;;4968375;28;20203;-73
2022/04/26 04:35:17;;;;;;;5.70;5.20;;;9.50;99.90;9.80;96537.00;;;;4973015;28;20196;-71
2022/04/26 04:37:47;;;;;;;4.83;4.20;;;9.50;99.90;9.80;96533.00;;;;4972546;28;20253;-72
2022/04/26 04:40:17;;;;;;;6.33;5.20;;;9.50;99.90;9.80;96536.00;;;;4972912;28;20202;-72
2022/04/26 04:42:48;;;;;;;6.73;4.80;;;9.40;99.90;9.90;96524.00;;;;4972796;28;20278;-72
2022/04/26 04:45:16;;;;;;;8.80;5.17;;;9.40;99.90;9.90;96534.00;;;;4972008;28;20609;-72
2022/04/26 04:47:45;;;;;;;5.27;4.77;;;9.40;99.90;9.90;96531.00;;;;4963724;28;20303;-72
2022/04/26 04:50:14;;;;;;;6.80;5.77;;;9.50;99.90;9.70;96523.00;;;;4972490;28;20200;-72
2022/04/26 04:52:43;;;;;;;6.33;5.40;;;9.40;99.90;9.90;96530.00;;;;4971419;28;20195;-74
2022/04/26 04:55:11;;;;;;;6.20;5.47;;;9.50;99.90;9.90;96536.00;;;;4970411;28;20299;-73
2022/04/26 04:57:40;;;;;;;5.70;5.23;;;9.50;99.90;9.60;96543.00;;;;4970944;28;20302;-72
2022/04/26 05:00:11;;;;;;;6.43;5.73;;;9.50;99.90;9.70;96542.00;;;;4970023;28;20195;-73
2022/04/26 05:02:40;;;;;;;6.10;5.37;;;9.40;99.90;9.70;96545.00;;;;4970688;28;20207;-72
2022/04/26 05:05:10;;;;;;;7.27;6.43;;;9.40;99.90;9.80;96546.00;;;;4969954;28;20231;-72
2022/04/26 05:07:39;;;;;;;6.93;5.40;;;9.40;99.90;9.90;96552.00;;;;4967204;28;20231;-72
2022/04/26 05:10:08;;;;;;;7.30;6.17;;;9.40;99.90;9.80;96551.00;;;;4964634;28;20199;-73
2022/04/26 05:12:37;;;;;;;6.53;5.93;;;9.50;99.90;9.50;96555.00;;;;4971354;28;20203;-72
2022/04/26 05:15:06;;;;;;;;;;;9.50;99.90;9.80;96562.00;;;;4971012;28;20042;-73
2022/04/26 05:17:36;;;;;;;;;;;9.40;99.90;10.00;96554.00;;;;4972221;28;19922;-72
2022/04/26 05:20:05;;;;;;;;;;;9.50;99.90;10.00;96557.00;;;;4972163;28;19922;-72
2022/04/26 05:24:53;;;;;;;;;;;9.50;99.90;9.80;96556.00;;;;4972532;28;19964;-72
2022/04/26 05:25:21;;;;;;;;;;;9.50;99.90;9.90;96568.00;;;;4970945;28;19922;-72
2022/04/26 05:27:50;;;;;;;;;;;9.50;99.90;9.90;96568.00;;;;4970774;28;19973;-72
2022/04/26 05:30:18;;;;;;;;;;;9.50;99.90;9.80;96566.00;;;;4972132;28;19926;-73
2022/04/26 05:32:48;;;;;;;12.27;8.20;;;9.50;99.90;9.90;96565.00;;;;4965923;28;20467;-72
2022/04/26 05:35:17;;;;;;;;;;;9.50;99.90;10.00;96565.00;;;;4970687;28;20329;-73
2022/04/26 05:37:45;;;;;;;;;;;9.50;99.90;10.10;96572.00;;;;4970292;28;19929;-72
2022/04/26 05:40:13;;;;;;;;;;;9.50;99.90;10.10;96565.00;;;;4967781;28;19953;-73
2022/04/26 05:42:42;;;;;;;9.50;7.23;;;9.60;99.90;10.30;96559.00;;;;4970097;28;20217;-72
2022/04/26 05:45:11;;;;;;;12.25;8.90;;;9.60;99.90;10.30;96564.00;;;;4968233;28;20412;-72
2022/04/26 05:47:42;;;;;;;8.68;7.60;;;9.70;99.90;10.40;96561.00;;;;4968207;28;20424;-73
2022/04/26 05:50:13;;;;;;;9.57;6.27;;;9.80;99.90;10.70;96564.00;;;;4964119;28;20207;-73
2022/04/26 05:52:42;;;;;;;10.30;6.67;;;9.90;99.90;10.80;96567.00;;;;4970398;28;20291;-72
2022/04/26 05:55:11;;;;;;;10.83;7.23;;;10.00;99.90;10.80;96557.00;;;;4973341;28;20196;-73
2022/04/26 05:57:42;;;;;;;12.90;7.47;;;10.10;99.90;10.50;96562.00;;;;4962449;28;20295;-74
2022/04/26 06:00:13;;;;;;;9.63;8.57;;;10.10;99.90;10.40;96560.00;;;;4952117;28;20254;-73
2022/04/26 06:02:43;;;;;;;10.97;8.43;;;10.10;99.90;10.50;96555.00;;;;4959138;28;20199;-72
2022/04/26 06:05:14;;;;;;;10.93;8.93;;;10.00;99.90;10.70;96564.00;;;;4968613;28;20268;-73
2022/04/26 06:07:43;;;;;;;10.67;8.97;;;10.10;99.90;10.90;96560.00;;;;4970102;28;20222;-72
2022/04/26 06:10:12;;;;;;;37.00;11.03;;;10.10;99.90;10.90;96557.00;;;;4974071;28;20199;-73
2022/04/26 06:12:42;;;;;;;13.43;8.07;;;10.20;99.90;11.20;96563.00;;;;4970815;28;20218;-72
2022/04/26 06:15:10;;;;;;;12.97;8.83;;;10.30;99.90;11.10;96566.00;;;;4952068;28;20243;-73
2022/04/26 06:17:39;;;;;;;9.50;7.93;;;10.30;99.90;11.30;96568.00;;;;4969709;28;20228;-73
2022/04/26 06:20:09;;;;;;;10.17;7.63;;;10.40;99.90;11.40;96575.00;;;;4970843;28;20199;-73
2022/04/26 06:22:39;;;;;;;10.93;7.40;;;10.60;99.90;11.50;96569.00;;;;4971168;28;20210;-73
2022/04/26 06:25:09;;;;;;;8.63;7.63;;;10.60;99.90;11.60;96571.00;;;;4970259;28;20195;-72
2022/04/26 06:27:37;;;;;;;9.87;8.63;;;10.70;99.90;11.60;96572.00;;;;4964938;28;20306;-74
2022/04/26 06:30:07;;;;;;;12.70;8.07;;;10.80;99.90;11.40;96564.00;;;;4970802;28;20246;-73
2022/04/26 06:32:36;;;;;;;9.77;7.87;;;10.90;99.90;11.50;96567.00;;;;4966529;28;20206;-72
2022/04/26 06:35:06;;;;;;;9.27;8.23;;;10.80;99.90;11.70;96571.00;;;;4971089;28;20258;-72
2022/04/26 06:37:35;;;;;;;13.03;8.23;;;10.90;99.90;11.80;96572.00;;;;4968976;28;20223;-72
2022/04/26 06:40:06;;;;;;;9.37;7.87;;;10.90;99.90;11.70;96566.00;;;;4969661;28;20286;-73
2022/04/26 06:42:35;;;;;;;8.37;7.57;;;11.00;99.90;11.90;96566.00;;;;4970612;28;20199;-72
2022/04/26 06:45:04;;;;;;;8.87;7.93;;;11.10;99.90;11.80;96575.00;;;;4970515;28;20194;-75
2022/04/26 06:47:33;;;;;;;9.13;6.63;;;11.10;99.90;11.90;96578.00;;;;4968723;28;20219;-72
2022/04/26 06:50:01;;;;;;;8.77;6.87;;;11.20;99.90;12.10;96574.00;;;;4958705;28;20223;-72
2022/04/26 06:52:31;;;;;;;8.93;7.97;;;11.30;99.90;12.30;96566.00;;;;4951351;28;20204;-72
2022/04/26 06:55:00;;;;;;;12.52;8.88;;;11.40;99.90;12.30;96568.00;;;;4950524;28;20409;-74
2022/04/26 06:57:30;;;;;;;9.20;8.10;;;11.50;99.90;12.40;96578.00;;;;4954480;28;20219;-72
2022/04/26 06:59:59;;;;;;;9.37;7.97;;;11.60;99.90;12.30;96576.00;;;;4968979;28;20230;-73
2022/04/26 07:02:28;;;;;;;10.63;6.83;;;11.60;99.90;12.40;96584.00;;;;4963569;28;20192;-73
2022/04/26 07:04:57;;;;;;;10.57;7.47;;;11.60;99.90;12.30;96573.00;;;;4951310;28;20192;-74
2022/04/26 07:07:25;;;;;;;7.97;6.93;;;11.60;99.90;12.30;96580.00;;;;4951078;28;20220;-73
2022/04/26 07:09:54;;;;;;;9.17;7.20;;;11.70;99.90;12.40;96580.00;;;;4951465;28;20295;-74
2022/04/26 07:12:23;;;;;;;10.70;9.30;;;11.60;99.90;12.20;96587.00;;;;4949557;28;20494;-73
2022/04/26 07:14:53;;;;;;;8.47;6.80;;;11.70;99.90;12.30;96585.00;;;;4964901;28;20534;-72
2022/04/26 07:17:21;;;;;;;11.97;7.97;;;11.70;99.90;12.30;96585.00;;;;4958092;28;20229;-72
2022/04/26 07:19:50;;;;;;;9.03;8.13;;;11.70;99.90;12.40;96584.00;;;;4966605;28;20210;-73
2022/04/26 07:22:27;;;;;;;7.93;7.03;;;11.70;99.90;12.50;96584.00;;;;4970738;28;20195;-74
2022/04/26 07:24:56;;;;;;;9.63;8.40;;;11.70;99.90;12.30;96589.00;;;;4970638;28;20207;-73
2022/04/26 07:27:24;;;;;;;11.67;7.93;;;11.70;99.90;12.20;96583.00;;;;4970296;28;20219;-73
2022/04/26 07:29:54;;;;;;;11.27;8.10;;;11.70;99.90;12.40;96595.00;;;;4958961;28;20247;-73
2022/04/26 07:34:20;;;;;;;11.53;8.53;;;11.70;99.90;12.50;96602.00;;;;4973321;28;20203;-74
2022/04/26 07:35:12;;;;;;;10.83;7.10;;;11.70;99.90;12.60;96594.00;;;;4954769;28;20219;-73
2022/04/26 07:37:41;;;;;;;9.57;8.60;;;11.80;99.90;12.70;96597.00;;;;4971163;28;20215;-73
2022/04/26 07:40:11;;;;;;;10.00;8.27;;;11.80;99.90;12.70;96602.00;;;;4974367;28;20231;-73
2022/04/26 07:42:40;;;;;;;9.93;8.20;;;11.90;99.90;12.80;96598.00;;;;4973966;28;20217;-73
2022/04/26 07:45:12;;;;;;;8.47;7.50;;;12.00;99.90;12.70;96599.00;;;;4973018;28;20379;-73
2022/04/26 07:47:41;;;;;;;8.13;7.17;;;12.00;99.90;13.00;96600.00;;;;4970863;28;20215;-74
2022/04/26 07:50:10;;;;;;;14.40;8.23;;;12.10;99.90;13.20;96608.00;;;;4966303;28;20230;-75
2022/04/26 07:52:40;;;;;;;10.23;7.17;;;12.20;99.90;13.10;96604.00;;;;4961704;28;20231;-73
2022/04/26 07:55:10;;;;;;;8.40;7.40;;;12.30;99.90;13.10;96604.00;;;;4973108;28;20278;-74
2022/04/26 07:57:39;;;;;;;8.80;7.07;;;12.40;99.90;13.10;96609.00;;;;4973315;28;20227;-75
2022/04/26 08:00:11;;;;;;;8.90;7.97;;;12.30;99.90;13.30;96619.00;;;;4973641;28;20199;-73
2022/04/26 08:02:39;;;;;;;8.40;7.53;;;12.40;99.90;13.30;96625.00;;;;4973862;28;20211;-74
2022/04/26 08:05:08;;;;;;;10.97;8.10;;;12.50;99.90;13.20;96613.00;;;;4973296;28;20254;-73
2022/04/26 08:07:39;;;;;;;13.83;8.17;;;12.50;99.90;13.20;96619.00;;;;4972764;28;20322;-73
2022/04/26 08:10:09;;;;;;;8.10;6.90;;;12.60;99.90;13.00;96627.00;;;;4973534;28;20227;-75
2022/04/26 08:12:39;;;;;;;8.70;7.80;;;12.50;99.90;13.00;96628.00;;;;4973563;28;20200;-74
2022/04/26 08:15:12;;;;;;;13.33;8.50;;;12.50;99.90;13.30;96619.00;;;;4973243;28;20207;-73
2022/04/26 08:17:41;;;;;;;9.40;8.40;;;12.50;99.90;13.20;96629.00;;;;4960722;28;20230;-73
2022/04/26 08:20:10;;;;;;;9.37;8.43;;;12.50;99.90;13.30;96617.00;;;;4971828;28;20203;-73
2022/04/26 08:22:39;;;;;;;28.43;22.57;;;12.60;99.90;13.60;96618.00;;;;4973408;28;20242;-73
2022/04/26 08:27:54;;;;;;;13.33;12.00;;;12.70;99.90;13.80;96620.00;;;;4973041;28;20219;-73
2022/04/26 08:30:24;;;;;;;9.97;8.80;;;12.80;99.90;13.90;96625.00;;;;4972991;28;20310;-73
2022/04/26 08:32:53;;;;;;;7.60;6.90;;;12.90;99.90;13.90;96628.00;;;;4968783;28;20208;-73
2022/04/26 08:35:25;;;;;;;8.80;7.87;;;13.00;99.90;13.80;96631.00;;;;4953966;28;20207;-73
2022/04/26 08:38:05;;;;;;;7.63;6.73;;;13.00;99.90;13.80;96629.00;;;;4960317;28;20231;-73
2022/04/26 08:40:33;;;;;;;8.60;6.37;;;13.10;99.90;13.60;96640.00;;;;4972664;28;20223;-73
2022/04/26 08:43:02;;;;;;;8.03;6.80;;;13.10;99.90;13.30;96631.00;;;;4972659;28;20278;-73
2022/04/26 08:45:33;;;;;;;8.27;7.47;;;13.00;99.90;13.00;96635.00;;;;4972137;28;20206;-73
2022/04/26 08:51:07;;;;;;;8.23;7.33;;;12.90;99.90;13.40;96633.00;;;;4965001;28;20282;-73
2022/04/26 08:53:38;;;;;;;7.13;6.43;;;12.90;99.90;12.90;96635.00;;;;4969397;28;20204;-73
2022/04/26 08:56:07;;;;;;;8.27;7.00;;;12.80;99.90;12.70;96629.00;;;;4968806;28;20198;-72
2022/04/26 08:58:36;;;;;;;7.50;6.77;;;12.60;99.90;12.70;96636.00;;;;4971832;28;20219;-72
2022/04/26 09:01:10;;;;;;;7.50;6.80;;;12.50;99.90;12.60;96630.00;;;;4972086;28;20291;-74
2022/04/26 09:03:41;;;;;;;7.83;6.77;;;12.40;99.90;12.30;96637.00;;;;4971286;28;20195;-72
2022/04/26 09:06:13;;;;;;;7.47;6.70;;;12.30;99.90;12.10;96636.00;;;;4968299;28;20278;-72
2022/04/26 09:08:43;;;;;;;7.50;6.80;;;12.10;99.90;12.00;96633.00;;;;4967523;28;20307;-72
2022/04/26 09:11:27;;;;;;;7.43;6.63;;;11.90;99.90;12.00;96642.00;;;;4959049;28;20275;-71
2022/04/26 09:13:57;;;;;;;10.87;6.90;;;11.80;99.90;12.30;96637.00;;;;4952791;28;20212;-70
2022/04/26 09:16:27;;;;;;;7.13;6.43;;;11.80;99.90;12.50;96643.00;;;;4961897;28;20210;-70
2022/04/26 09:18:58;;;;;;;10.00;7.30;;;11.90;99.90;12.80;96646.00;;;;4970104;28;20273;-70
2022/04/26 09:21:29;;;;;;;7.97;7.17;;;12.00;99.90;12.90;96640.00;;;;4971566;28;20199;-70
2022/04/26 09:24:00;;;;;;;7.00;6.30;;;12.10;99.90;12.80;96642.00;;;;4972269;28;20199;-70
2022/04/26 09:26:37;;;;;;;8.07;7.17;;;12.10;99.90;12.70;96639.00;;;;4971895;28;20195;-70
2022/04/26 09:29:07;;;;;;;6.60;6.00;;;12.20;99.90;12.50;96644.00;;;;4972145;28;20222;-70
2022/04/26 09:31:39;;;;;;;8.67;7.27;;;12.10;99.90;12.40;96646.00;;;;4971715;28;20238;-71
2022/04/26 09:34:13;;;;;;;6.60;5.90;;;12.10;99.90;12.40;96643.00;;;;4957431;28;20283;-71
2022/04/26 09:36:48;;;;;;;8.37;7.50;;;12.00;99.90;12.50;96640.00;;;;4961491;28;20213;-71
2022/04/26 09:39:21;;;;;;;8.70;6.47;;;12.00;99.90;12.80;96644.00;;;;4971506;28;20221;-72
2022/04/26 09:42:02;;;;;;;9.23;6.87;;;12.00;99.90;12.90;96647.00;;;;4972018;28;20250;-72
2022/04/26 09:44:35;;;;;;;8.53;7.63;;;12.10;99.90;12.90;96637.00;;;;4971898;28;20324;-71
2022/04/26 09:47:05;;;;;;;9.93;7.13;;;12.10;99.90;13.10;96642.00;;;;4970133;28;20195;-72
2022/04/26 09:49:38;;;;;;;9.77;7.07;;;12.20;99.90;12.90;96644.00;;;;4962873;28;20224;-72
2022/04/26 09:52:08;;;;;;;8.40;6.70;;;12.30;99.90;12.70;96637.00;;;;4952416;28;20208;-72
2022/04/26 09:54:37;;;;;;;7.83;6.53;;;12.30;99.90;13.00;96641.00;;;;4951754;28;20258;-72
2022/04/26 09:57:08;;;;;;;7.47;6.77;;;12.40;99.90;13.00;96636.00;;;;4951806;28;20204;-72
2022/04/26 09:59:51;;;;;;;6.13;5.50;;;12.30;99.90;13.10;96646.00;;;;4952058;28;20204;-72
2022/04/26 10:02:24;;;;;;;9.87;7.17;;;12.40;99.90;13.20;96638.00;;;;4962566;28;20201;-72
2022/04/26 10:04:58;;;;;;;8.53;6.97;;;12.40;99.90;12.90;96632.00;;;;4968746;28;20202;-72
2022/04/26 10:07:29;;;;;;;8.80;7.30;;;12.50;99.90;12.50;96627.00;;;;4969963;28;20301;-72
2022/04/26 10:09:58;;;;;;;7.97;6.43;;;12.30;99.90;12.90;96630.00;;;;4954954;28;20226;-72
2022/04/26 10:12:26;;;;;;;7.10;6.03;;;12.40;99.90;12.80;96632.00;;;;4951881;28;20200;-71
2022/04/26 10:14:56;;;;;;;9.13;6.50;;;12.40;99.90;12.70;96626.00;;;;4951739;28;20222;-71
2022/04/26 10:17:26;;;;;;;7.93;7.10;;;12.40;99.90;12.60;96622.00;;;;4969992;28;20227;-72
2022/04/26 10:19:55;;;;;;;8.60;7.40;;;12.40;99.90;12.80;96624.00;;;;4970575;28;20270;-71
2022/04/26 10:23:02;;;;;;;9.33;6.70;;;12.30;99.90;12.70;96620.00;;;;4971078;28;20289;-71
2022/04/26 10:25:31;;;;;;;8.93;7.07;;;12.30;99.90;12.40;96614.00;;;;4952364;28;20219;-72
2022/04/26 10:28:23;;;;;;;8.83;7.93;;;12.20;99.90;12.80;96629.00;;;;4992841;23;20231;-70
2022/04/26 10:30:54;;;;;;;8.37;6.70;;;12.20;99.90;13.00;96629.00;;;;4945154;29;20227;-69
2022/04/26 10:33:42;;;;;;;8.50;7.37;;;12.30;99.90;13.20;96616.00;;;;4951196;29;20200;-69
2022/04/26 10:36:36;;;;;;;7.53;6.83;;;12.40;99.90;13.10;96618.00;;;;4951454;29;20267;-70
2022/04/26 10:39:31;;;;;;;7.43;6.40;;;12.50;99.90;13.20;96611.00;;;;4950274;29;20216;-69
2022/04/26 10:42:01;;;;;;;7.32;6.55;;;12.60;99.90;13.10;96605.00;;;;4945096;29;20472;-69
2022/04/26 10:44:43;;;;;;;8.37;7.47;;;12.70;99.90;13.40;96605.00;;;;4949394;29;20202;-69
2022/04/26 10:47:36;;;;;;;7.90;7.10;;;12.70;99.90;13.70;96603.00;;;;4947887;29;20690;-69
2022/04/26 10:50:09;;;;;;;7.03;6.33;;;12.80;99.90;14.00;96610.00;;;;4951102;29;20274;-69
2022/04/26 10:52:47;;;;;;;6.20;5.60;;;12.90;99.90;13.90;96607.00;;;;4949264;29;20222;-69
2022/04/26 10:55:20;;;;;;;9.47;6.30;;;13.10;99.90;13.60;96609.00;;;;4951311;29;20207;-69
2022/04/26 10:57:51;;;;;;;9.25;6.75;;;13.10;99.90;13.70;96609.00;;;;4950090;29;20413;-69
2022/04/26 11:00:27;;;;;;;8.67;7.00;;;13.20;99.90;13.40;96593.00;;;;4951631;29;20204;-69
2022/04/26 11:03:03;;;;;;;11.07;7.57;;;13.10;99.90;13.10;96598.00;;;;4951842;29;20203;-69
2022/04/26 11:05:34;;;;;;;7.20;6.33;;;13.00;99.90;13.20;96600.00;;;;4949001;28;20195;-68
2022/04/26 11:08:09;;;;;;;7.53;6.67;;;13.00;99.90;13.10;96596.00;;;;4951769;29;20203;-68
2022/04/26 11:13:37;;;;;;;8.60;6.57;;;12.90;99.90;13.40;96605.00;;;;4954233;29;20199;-68
2022/04/26 11:16:13;;;;;;;9.63;6.23;;;13.00;99.90;13.60;96608.00;;;;4953920;29;20208;-68
2022/04/26 11:18:43;;;;;;;7.17;6.03;;;13.00;99.90;13.80;96597.00;;;;4947801;29;20222;-69
2022/04/26 11:21:16;;;;;;;8.37;7.13;;;13.00;99.90;14.10;96603.00;;;;4954656;29;20208;-69
2022/04/26 11:29:26;;;;;;;9.40;7.07;;;13.30;99.90;14.20;96601.00;;;;4954019;29;20227;-68
2022/04/26 11:31:56;;;;;;;9.57;6.97;;;13.40;99.90;14.30;96602.00;;;;4952718;29;20226;-68
2022/04/26 11:34:46;;;;;;;8.23;6.83;;;13.50;99.90;14.50;96603.00;;;;4936236;29;20209;-68
2022/04/26 11:37:16;;;;;;;10.90;6.93;;;13.60;99.90;14.50;96609.00;;;;4954063;29;20204;-68
2022/04/26 11:39:44;;;;;;;9.50;7.30;;;13.60;99.90;14.60;96604.00;;;;4954319;29;20302;-68
2022/04/26 11:42:13;;;;;;;9.60;7.90;;;13.70;99.90;14.50;96603.00;;;;4941913;29;20212;-68
2022/04/26 11:45:02;;;;;;;12.03;7.23;;;13.70;99.90;14.60;96603.00;;;;4948399;29;20204;-68
2022/04/26 11:47:43;;;;;;;8.93;7.80;;;13.70;99.90;14.50;96602.00;;;;4949961;29;20203;-69
2022/04/26 11:50:18;;;;;;;13.13;8.63;;;13.80;99.90;14.70;96597.00;;;;4939980;29;20248;-68
2022/04/26 11:52:50;;;;;;;15.53;8.33;;;13.80;99.90;14.80;96600.00;;;;4935811;29;20259;-68
2022/04/26 11:55:23;;;;;;;9.73;7.40;;;13.80;99.90;14.80;96602.00;;;;4935376;29;20209;-69
2022/04/26 11:57:54;;;;;;;11.27;7.57;;;13.90;99.90;14.70;96605.00;;;;4936841;28;20209;-68
2022/04/26 12:00:23;;;;;;;9.73;7.37;;;13.90;99.90;14.60;96614.00;;;;4950735;29;20215;-68
2022/04/26 12:02:52;;;;;;;8.60;7.10;;;13.90;99.90;14.20;96605.00;;;;4950017;29;20195;-69
2022/04/26 12:05:22;;;;;;;9.43;8.43;;;13.80;99.90;13.40;96602.00;;;;4951256;29;20216;-68
2022/04/26 12:07:53;;;;;;;9.70;7.10;;;13.60;99.90;13.80;96605.00;;;;4950822;29;20291;-69
2022/04/26 12:10:30;;;;;;;8.20;6.63;;;13.50;99.90;14.20;96595.00;;;;4947058;29;20209;-69
2022/04/26 12:13:02;;;;;;;7.53;6.77;;;13.40;99.90;14.00;96597.00;;;;4942459;29;20228;-69
2022/04/26 12:15:33;;;;;;;10.53;7.33;;;13.50;99.90;14.10;96586.00;;;;4951330;28;20266;-69
2022/04/26 12:18:14;;;;;;;8.07;6.20;;;13.50;99.90;14.10;96590.00;;;;4952604;29;20204;-69
2022/04/26 12:21:00;;;;;;;9.40;7.27;;;13.50;99.90;14.20;96579.00;;;;4950896;29;20191;-69
2022/04/26 12:23:33;;;;;;;8.10;7.27;;;13.60;99.90;14.30;96575.00;;;;4952012;29;20200;-68
2022/04/26 12:26:04;;;;;;;8.53;7.53;;;13.60;99.90;14.40;96570.00;;;;4951813;29;20200;-68
2022/04/26 12:28:47;;;;;;;8.37;7.57;;;13.70;99.90;14.70;96566.00;;;;4951371;29;20228;-69
2022/04/26 12:31:28;;;;;;;9.50;7.83;;;13.70;99.90;14.90;96553.00;;;;4950921;29;20267;-69
2022/04/26 12:34:13;;;;;;;10.43;8.07;;;13.80;99.90;15.20;96559.00;;;;4949839;29;20210;-69
2022/04/26 12:37:06;;;;;;;11.33;8.20;;;14.00;99.90;15.30;96557.00;;;;4948574;29;20192;-69
2022/04/26 12:39:45;;;;;;;10.80;8.03;;;14.20;99.90;15.70;96553.00;;;;4953413;29;20216;-69
2022/04/26 12:42:16;;;;;;;15.73;11.73;;;14.40;99.90;15.60;96560.00;;;;4949687;29;20208;-69
2022/04/26 12:44:53;;;;;;;11.47;8.43;;;14.50;99.90;15.40;96561.00;;;;4953025;29;20196;-69
2022/04/26 12:50:31;;;;;;;11.23;8.00;;;14.60;99.90;15.50;96550.00;;;;4951068;29;20240;-69
2022/04/26 12:53:02;;;;;;;11.13;7.97;;;14.60;99.90;15.50;96552.00;;;;4952327;29;20200;-69
2022/04/26 12:55:35;;;;;;;11.10;8.63;;;14.60;99.90;15.50;96552.00;;;;4953224;29;20204;-69
2022/04/26 12:58:07;;;;;;;12.13;8.80;;;14.60;99.90;15.10;96552.00;;;;4948962;29;20235;-69
2022/04/26 13:00:39;;;;;;;18.97;10.60;;;14.60;99.90;15.20;96545.00;;;;4952872;29;20258;-69
2022/04/26 13:03:09;;;;;;;10.30;8.23;;;14.50;99.90;15.20;96550.00;;;;4948876;29;20254;-69
2022/04/26 13:05:41;;;;;;;11.00;8.63;;;14.50;99.90;15.00;96539.00;;;;4950556;29;20232;-69
2022/04/26 13:08:10;;;;;;;12.00;8.77;;;14.40;99.90;15.00;96537.00;;;;4951306;29;20196;-69
2022/04/26 13:10:41;;;;;;;9.53;7.50;;;14.30;99.90;15.10;96534.00;;;;4948516;29;20196;-69
2022/04/26 13:13:10;;;;;;;9.63;8.17;;;14.40;99.90;15.20;96533.00;;;;4951833;29;20196;-69
2022/04/26 13:15:41;;;;;;;11.40;8.33;;;14.40;99.90;15.10;96532.00;;;;4952390;28;20278;-69
2022/04/26 13:18:12;;;;;;;11.67;9.00;;;14.40;99.90;15.40;96541.00;;;;4951871;29;20306;-69
2022/04/26 13:20:41;;;;;;;10.07;8.97;;;14.50;99.90;15.60;96536.00;;;;4951263;29;20259;-69
2022/04/26 13:23:12;;;;;;;17.23;8.67;;;14.50;99.90;15.50;96539.00;;;;4947261;29;20217;-69
2022/04/26 13:25:43;;;;;;;9.73;7.80;;;14.60;99.90;15.10;96538.00;;;;4952382;29;20200;-68
2022/04/26 13:28:12;;;;;;;9.07;7.90;;;14.60;99.90;15.40;96522.00;;;;4934645;29;20208;-68
2022/04/26 13:30:41;;;;;;;9.50;8.03;;;14.60;99.90;15.20;96519.00;;;;4952308;29;20200;-69
2022/04/26 13:33:10;;;;;;;9.20;7.87;;;14.60;99.90;15.70;96509.00;;;;4950611;29;20219;-69
2022/04/26 13:35:41;;;;;;;10.00;8.80;;;14.70;99.90;15.90;96515.00;;;;4949175;29;20238;-69
2022/04/26 13:38:12;;;;;;;9.93;8.50;;;14.80;99.90;15.80;96530.00;;;;4933208;29;20235;-69
2022/04/26 13:40:43;;;;;;;9.80;8.77;;;14.90;99.90;15.60;96525.00;;;;4942172;29;20199;-69
2022/04/26 13:43:12;;;;;;;9.57;8.17;;;14.80;99.90;15.30;96527.00;;;;4951987;29;20211;-69
2022/04/26 13:45:47;;;;;;;10.37;7.90;;;14.80;99.90;15.30;96524.00;;;;4950505;29;20200;-70
2022/04/26 13:48:16;;;;;;;13.57;8.00;;;14.70;99.90;15.40;96525.00;;;;4951785;29;20215;-69
2022/04/26 13:50:45;;;;;;;9.90;7.97;;;14.60;99.90;15.20;96514.00;;;;4942025;29;20203;-70
2022/04/26 13:53:13;;;;;;;11.93;8.13;;;14.60;99.90;15.10;96505.00;;;;4948880;29;20228;-69
2022/04/26 13:55:43;;;;;;;11.47;8.43;;;14.50;99.90;15.20;96500.00;;;;4952445;29;20199;-69
2022/04/26 13:58:12;;;;;;;16.23;8.27;;;14.40;99.90;15.10;96504.00;;;;4952207;29;20207;-69
2022/04/26 14:00:40;;;;;;;8.53;7.63;;;14.40;99.90;15.00;96513.00;;;;4951776;29;20196;-69
2022/04/26 14:03:09;;;;;;;10.00;7.50;;;14.30;99.90;14.60;96508.00;;;;4945424;29;20343;-69
2022/04/26 14:05:38;;;;;;;11.40;7.50;;;14.30;99.90;14.60;96506.00;;;;4945488;29;20204;-69
2022/04/26 14:08:08;;;;;;;11.37;8.00;;;14.10;99.90;14.00;96496.00;;;;4933065;29;20244;-69
2022/04/26 14:10:37;;;;;;;11.37;9.87;;;13.90;99.90;13.60;96498.00;;;;4951298;29;20206;-69
2022/04/26 14:13:09;;;;;;;11.20;9.73;;;13.70;99.90;13.40;96497.00;;;;4944820;29;20243;-69
2022/04/26 14:23:56;;;;;;;11.30;9.77;;;13.00;99.90;13.40;96493.00;;;;4943136;29;20211;-69
2022/04/26 14:26:24;;;;;;;13.90;11.17;;;13.00;99.90;13.40;96494.00;;;;4947448;28;20251;-67
2022/04/26 14:28:54;;;;;;;11.70;10.53;;;12.90;99.90;13.20;96483.00;;;;4950454;29;20227;-66
2022/04/26 14:31:24;;;;;;;14.27;11.07;;;12.80;99.90;13.40;96491.00;;;;4950979;29;20254;-69
2022/04/26 14:33:53;;;;;;;11.83;9.17;;;12.80;99.90;13.40;96497.00;;;;4951254;29;20192;-69
2022/04/26 14:36:21;;;;;;;13.37;10.07;;;12.80;99.90;13.10;96504.00;;;;4948639;28;20216;-68
2022/04/26 14:38:58;;;;;;;12.40;10.50;;;12.80;99.90;13.10;96505.00;;;;4942119;28;20260;-69
2022/04/26 14:41:27;;;;;;;13.80;10.87;;;12.80;99.90;12.80;96493.00;;;;4943181;28;20200;-68
2022/04/26 14:43:57;;;;;;;13.53;11.50;;;12.70;99.90;13.00;96508.00;;;;4946644;28;20215;-69
2022/04/26 14:46:28;;;;;;;10.97;9.63;;;12.60;99.90;12.80;96496.00;;;;4957269;28;20200;-68
2022/04/26 14:49:00;;;;;;;14.07;10.40;;;12.60;99.90;12.90;96498.00;;;;4942161;28;20220;-69
2022/04/26 14:51:29;;;;;;;13.13;9.50;;;12.50;99.90;12.90;96512.00;;;;4942359;28;20208;-69
2022/04/26 14:53:57;;;;;;;13.77;10.47;;;12.50;99.90;12.90;96512.00;;;;4937054;28;20347;-69
2022/04/26 14:56:26;;;;;;;11.50;9.90;;;12.40;99.90;12.90;96512.00;;;;4940494;28;20211;-69
2022/04/26 14:59:16;;;;;;;13.67;11.13;;;12.40;99.90;12.70;96509.00;;;;4946935;28;20227;-69
2022/04/26 15:01:46;;;;;;;14.03;10.20;;;12.30;99.90;12.70;96509.00;;;;4941685;28;20212;-69
2022/04/26 15:04:15;;;;;;;12.53;10.00;;;12.30;99.90;12.60;96511.00;;;;4941797;28;20200;-69
2022/04/26 15:06:44;;;;;;;17.67;11.93;;;12.20;99.90;12.60;96521.00;;;;4944036;29;20215;-68
2022/04/26 15:17:33;;;;;;;13.13;11.27;;;12.00;99.90;12.70;96510.00;;;;4943352;28;20286;-69
2022/04/26 15:20:03;;;;;;;13.60;11.10;;;12.00;99.90;12.80;96510.00;;;;4942199;29;20220;-68
2022/04/26 15:22:31;;;;;;;16.27;12.57;;;12.10;99.90;12.90;96507.00;;;;4940872;29;20212;-68
2022/04/26 15:25:00;;;;;;;13.10;11.67;;;12.20;99.90;13.00;96498.00;;;;4943305;29;20200;-68
2022/04/26 15:27:29;;;;;;;14.20;12.63;;;12.20;99.90;13.10;96491.00;;;;4944842;29;20217;-69